createdAt,value
2018-10-05T00:00:35.934Z,99.90
2018-10-05T00:03:04.082Z,99.90
2018-10-05T00:05:32.272Z,99.90
2018-10-05T00:08:00.434Z,99.90
2018-10-05T00:10:28.571Z,99.90
2018-10-05T00:12:56.707Z,99.90
2018-10-05T00:15:24.827Z,99.90
2018-10-05T00:17:52.958Z,99.90
2018-10-05T00:20:21.120Z,99.90
2018-10-05T00:22:49.276Z,99.90
2018-10-05T00:25:17.408Z,99.90
2018-10-05T00:27:45.540Z,99.90
2018-10-05T00:30:13.692Z,99.90
2018-10-05T00:32:41.815Z,99.90
2018-10-05T00:35:09.959Z,99.90
2018-10-05T00:37:38.094Z,99.90
2018-10-05T00:40:06.442Z,99.90
2018-10-05T00:42:34.612Z,99.90
2018-10-05T00:45:02.749Z,99.90
2018-10-05T00:47:30.890Z,99.90
2018-10-05T00:49:59.054Z,99.90
2018-10-05T00:52:27.186Z,99.90
2018-10-05T00:54:55.335Z,99.90
2018-10-05T00:57:23.475Z,99.90
2018-10-05T00:59:51.642Z,99.90
2018-10-05T01:02:19.771Z,99.90
2018-10-05T01:04:47.919Z,99.90
2018-10-05T01:07:16.059Z,99.90
2018-10-05T01:09:44.174Z,99.90
2018-10-05T01:12:12.331Z,99.90
2018-10-05T01:14:40.466Z,99.90
2018-10-05T01:17:08.635Z,99.90
2018-10-05T01:19:38.303Z,99.90
2018-10-05T01:22:06.541Z,99.90
2018-10-05T01:24:34.742Z,99.90
2018-10-05T01:27:02.922Z,99.90
2018-10-05T01:29:31.060Z,99.90
2018-10-05T01:31:59.198Z,99.90
2018-10-05T01:34:27.366Z,99.90
2018-10-05T01:36:55.494Z,99.90
2018-10-05T01:39:23.623Z,99.90
2018-10-05T01:41:51.890Z,99.90
2018-10-05T01:44:20.023Z,99.90
2018-10-05T01:46:48.158Z,99.90
2018-10-05T01:49:16.295Z,99.90
2018-10-05T01:51:45.386Z,99.90
2018-10-05T01:54:13.512Z,99.90
2018-10-05T01:56:41.646Z,99.90
2018-10-05T01:59:09.809Z,99.90
2018-10-05T02:01:37.936Z,99.90
2018-10-05T02:04:06.062Z,99.90
2018-10-05T02:06:34.186Z,99.90
2018-10-05T02:09:02.302Z,99.90
2018-10-05T02:11:30.432Z,99.90
2018-10-05T02:13:58.547Z,99.90
2018-10-05T02:16:26.678Z,99.90
2018-10-05T02:18:54.798Z,99.90
2018-10-05T02:21:22.951Z,99.90
2018-10-05T02:23:51.073Z,99.90
2018-10-05T02:26:19.215Z,99.90
2018-10-05T02:28:47.359Z,99.90
2018-10-05T02:31:15.552Z,99.90
2018-10-05T02:33:43.703Z,99.90
2018-10-05T02:36:11.832Z,99.90
2018-10-05T02:38:40.032Z,99.90
2018-10-05T02:41:08.158Z,99.90
2018-10-05T02:43:36.295Z,99.90
2018-10-05T02:46:04.426Z,99.90
2018-10-05T02:48:32.568Z,99.90
2018-10-05T02:51:00.699Z,99.90
2018-10-05T02:53:28.827Z,99.90
2018-10-05T02:55:57.006Z,99.90
2018-10-05T02:58:25.154Z,99.90
2018-10-05T03:01:04.694Z,99.90
2018-10-05T03:03:32.830Z,99.90
2018-10-05T03:06:07.687Z,99.90
2018-10-05T03:08:35.819Z,99.90
2018-10-05T03:11:03.982Z,99.90
2018-10-05T03:13:32.140Z,99.90
2018-10-05T03:16:00.322Z,99.90
2018-10-05T03:18:28.455Z,99.90
2018-10-05T03:20:56.627Z,99.90
2018-10-05T03:23:24.750Z,99.90
2018-10-05T03:25:52.883Z,99.90
2018-10-05T03:28:21.010Z,99.90
2018-10-05T03:30:49.144Z,99.90
2018-10-05T03:33:17.270Z,99.90
2018-10-05T03:35:45.403Z,99.90
2018-10-05T03:38:13.538Z,99.90
2018-10-05T03:40:41.715Z,99.90
2018-10-05T03:43:09.863Z,99.90
2018-10-05T03:45:38.011Z,99.90
2018-10-05T03:48:06.322Z,99.90
2018-10-05T03:50:34.501Z,99.90
2018-10-05T03:53:02.816Z,99.90
2018-10-05T03:55:30.950Z,99.90
2018-10-05T03:57:59.060Z,99.90
2018-10-05T04:00:27.315Z,99.90
2018-10-05T04:02:55.466Z,99.90
2018-10-05T04:05:23.643Z,99.90
2018-10-05T04:07:51.913Z,99.90
2018-10-05T04:10:20.040Z,99.90
2018-10-05T04:12:48.242Z,99.90
2018-10-05T04:15:16.378Z,99.90
2018-10-05T04:17:44.519Z,99.90
2018-10-05T04:20:12.935Z,99.90
2018-10-05T04:22:41.119Z,99.90
2018-10-05T04:25:09.277Z,99.90
2018-10-05T04:27:37.413Z,99.90
2018-10-05T04:30:05.563Z,99.90
2018-10-05T04:32:33.678Z,99.90
2018-10-05T04:35:01.818Z,99.90
2018-10-05T04:37:29.950Z,99.90
2018-10-05T04:39:58.099Z,99.90
2018-10-05T04:42:26.232Z,99.90
2018-10-05T04:44:54.362Z,99.90
2018-10-05T04:47:22.532Z,99.90
2018-10-05T04:49:50.666Z,99.90
2018-10-05T04:52:18.820Z,99.90
2018-10-05T04:54:46.947Z,99.90
2018-10-05T04:57:15.094Z,99.90
2018-10-05T04:59:43.223Z,99.90
2018-10-05T05:02:11.374Z,99.90
2018-10-05T05:04:39.532Z,99.90
2018-10-05T05:07:07.805Z,99.90
2018-10-05T05:09:36.065Z,99.90
2018-10-05T05:12:04.349Z,99.90
2018-10-05T05:14:32.516Z,99.90
2018-10-05T05:17:00.684Z,99.90
2018-10-05T05:19:28.907Z,99.90
2018-10-05T05:21:57.027Z,99.90
2018-10-05T05:24:25.239Z,99.90
2018-10-05T05:26:53.339Z,99.90
2018-10-05T05:29:21.479Z,99.90
2018-10-05T05:31:49.602Z,99.90
2018-10-05T05:34:17.731Z,99.90
2018-10-05T05:36:45.866Z,99.90
2018-10-05T05:39:14.000Z,99.90
2018-10-05T05:41:42.142Z,99.90
2018-10-05T05:44:10.330Z,99.90
2018-10-05T05:46:38.453Z,99.90
2018-10-05T05:49:06.639Z,99.90
2018-10-05T05:51:34.862Z,99.90
2018-10-05T05:54:03.018Z,99.90
2018-10-05T05:56:31.171Z,99.90
2018-10-05T05:58:59.304Z,99.90
2018-10-05T06:01:27.435Z,99.90
2018-10-05T06:03:55.661Z,99.90
2018-10-05T06:06:23.748Z,99.90
2018-10-05T06:08:51.939Z,99.90
2018-10-05T06:11:20.075Z,99.90
2018-10-05T06:13:48.211Z,99.90
2018-10-05T06:16:16.358Z,99.90
2018-10-05T06:18:44.542Z,99.90
2018-10-05T06:21:12.686Z,99.90
2018-10-05T06:23:40.843Z,99.90
2018-10-05T06:26:09.099Z,99.90
2018-10-05T06:28:37.235Z,99.90
2018-10-05T06:31:05.642Z,99.90
2018-10-05T06:33:33.733Z,99.90
2018-10-05T06:36:01.890Z,99.90
2018-10-05T06:38:30.058Z,99.90
2018-10-05T06:40:58.227Z,99.90
2018-10-05T06:43:26.377Z,99.90
2018-10-05T06:45:54.502Z,99.90
2018-10-05T06:48:22.663Z,99.90
2018-10-05T06:50:50.828Z,99.90
2018-10-05T06:53:18.959Z,99.90
2018-10-05T06:55:47.095Z,99.90
2018-10-05T06:58:15.219Z,99.90
2018-10-05T07:00:43.403Z,99.90
2018-10-05T07:03:11.535Z,99.90
2018-10-05T07:05:39.663Z,99.90
2018-10-05T07:08:07.812Z,99.90
2018-10-05T07:10:35.976Z,99.90
2018-10-05T07:13:04.125Z,99.90
2018-10-05T07:15:32.284Z,99.90
2018-10-05T07:18:00.422Z,99.90
2018-10-05T07:20:28.719Z,99.90
2018-10-05T07:22:56.850Z,99.90
2018-10-05T07:25:25.112Z,99.90
2018-10-05T07:27:53.247Z,99.90
2018-10-05T07:30:21.366Z,99.90
2018-10-05T07:32:49.519Z,99.90
2018-10-05T07:35:17.667Z,99.90
2018-10-05T07:37:45.827Z,99.90
2018-10-05T07:40:13.962Z,99.90
2018-10-05T07:42:42.126Z,99.90
2018-10-05T07:45:10.270Z,99.90
2018-10-05T07:47:38.406Z,99.90
2018-10-05T07:50:06.537Z,99.90
2018-10-05T07:52:35.079Z,99.90
2018-10-05T07:55:03.232Z,99.90
2018-10-05T07:57:31.428Z,99.90
2018-10-05T07:59:59.583Z,99.90
2018-10-05T08:02:27.724Z,99.90
2018-10-05T08:04:55.858Z,99.90
2018-10-05T08:07:24.000Z,99.90
2018-10-05T08:09:52.123Z,99.90
2018-10-05T08:12:20.248Z,99.90
2018-10-05T08:14:48.379Z,99.90
2018-10-05T08:17:16.571Z,99.90
2018-10-05T08:19:44.717Z,99.90
2018-10-05T08:22:12.869Z,99.90
2018-10-05T08:24:41.022Z,99.90
2018-10-05T08:27:09.179Z,99.90
2018-10-05T08:29:37.314Z,99.90
2018-10-05T08:32:05.439Z,99.90
2018-10-05T08:34:33.628Z,99.90
2018-10-05T08:37:01.714Z,99.90
2018-10-05T08:39:29.865Z,99.90
2018-10-05T08:41:57.991Z,99.90
2018-10-05T08:44:26.152Z,99.90
2018-10-05T08:46:54.283Z,99.90
2018-10-05T08:49:22.415Z,99.90
2018-10-05T08:51:50.587Z,99.90
2018-10-05T08:54:18.710Z,99.90
2018-10-05T08:56:46.858Z,99.90
2018-10-05T08:59:15.007Z,99.90
2018-10-05T09:01:43.175Z,99.90
2018-10-05T09:04:11.374Z,99.90
2018-10-05T09:06:39.490Z,99.90
2018-10-05T09:09:07.877Z,99.90
2018-10-05T09:11:36.020Z,99.90
2018-10-05T09:14:04.159Z,99.90
2018-10-05T09:16:32.290Z,99.90
2018-10-05T09:19:00.442Z,99.90
2018-10-05T09:21:28.626Z,99.90
2018-10-05T09:23:56.768Z,99.90
2018-10-05T09:26:24.886Z,99.90
2018-10-05T09:28:53.023Z,99.90
2018-10-05T09:31:21.268Z,99.90
2018-10-05T09:33:49.606Z,99.90
2018-10-05T09:36:17.744Z,99.90
2018-10-05T09:38:46.216Z,99.90
2018-10-05T09:41:14.393Z,99.90
2018-10-05T09:43:42.572Z,99.90
2018-10-05T09:46:10.723Z,99.90
2018-10-05T09:48:38.861Z,99.90
2018-10-05T09:51:06.999Z,99.90
2018-10-05T09:53:35.152Z,99.90
2018-10-05T09:56:03.526Z,99.90
2018-10-05T09:58:31.691Z,99.90
2018-10-05T10:01:05.260Z,99.90
2018-10-05T10:03:34.942Z,99.90
2018-10-05T10:06:03.641Z,99.90
2018-10-05T10:08:31.798Z,99.90
2018-10-05T10:10:59.926Z,99.90
2018-10-05T10:13:28.071Z,99.90
2018-10-05T10:15:56.346Z,99.90
2018-10-05T10:18:24.499Z,99.90
2018-10-05T10:20:52.640Z,99.90
2018-10-05T10:23:20.777Z,99.90
2018-10-05T10:25:48.902Z,99.90
2018-10-05T10:28:17.164Z,99.90
2018-10-05T10:30:45.299Z,99.90
2018-10-05T10:33:13.422Z,99.90
2018-10-05T10:35:41.548Z,99.90
2018-10-05T10:38:09.695Z,99.90
2018-10-05T10:40:37.821Z,99.90
2018-10-05T10:43:06.095Z,99.90
2018-10-05T10:45:34.242Z,99.90
2018-10-05T10:48:02.374Z,99.90
2018-10-05T10:50:30.490Z,99.90
2018-10-05T10:52:58.651Z,99.90
2018-10-05T10:55:26.803Z,99.90
2018-10-05T10:57:54.923Z,99.90
2018-10-05T11:00:23.085Z,99.90
2018-10-05T11:02:51.226Z,99.90
2018-10-05T11:05:19.363Z,99.90
2018-10-05T11:07:47.579Z,99.90
2018-10-05T11:10:15.695Z,99.90
2018-10-05T11:12:43.898Z,99.90
2018-10-05T11:15:12.069Z,99.90
2018-10-05T11:17:40.171Z,99.90
2018-10-05T11:20:08.282Z,99.90
2018-10-05T11:22:36.394Z,99.90
2018-10-05T11:25:04.683Z,99.90
2018-10-05T11:27:32.787Z,99.90
2018-10-05T11:30:00.966Z,99.90
2018-10-05T11:32:29.083Z,99.90
2018-10-05T11:34:57.265Z,99.90
2018-10-05T11:37:25.466Z,99.90
2018-10-05T11:39:53.579Z,99.90
2018-10-05T11:51:30.470Z,99.90
2018-10-05T11:53:58.642Z,99.90
2018-10-05T11:56:26.855Z,99.90
2018-10-05T11:58:55.090Z,99.90
2018-10-05T12:01:23.614Z,99.90
2018-10-05T12:03:52.175Z,99.90
2018-10-05T12:06:20.327Z,99.90
2018-10-05T12:08:48.543Z,99.90
2018-10-05T12:11:16.863Z,99.90
2018-10-05T12:13:45.114Z,99.90
2018-10-05T12:16:13.334Z,99.90
2018-10-05T12:18:41.598Z,99.90
2018-10-05T12:21:09.978Z,99.90
2018-10-05T12:23:38.163Z,99.90
2018-10-05T12:26:06.374Z,99.90
2018-10-05T12:28:34.536Z,99.90
2018-10-05T12:31:02.749Z,99.90
2018-10-05T12:33:30.939Z,99.90
2018-10-05T12:35:59.184Z,99.90
2018-10-05T12:38:27.418Z,99.90
2018-10-05T12:40:55.551Z,99.90
2018-10-05T12:43:23.748Z,99.90
2018-10-05T12:45:51.904Z,99.90
2018-10-05T12:48:20.090Z,99.40
2018-10-05T12:50:48.247Z,99.00
2018-10-05T12:53:16.421Z,99.20
2018-10-05T12:55:44.644Z,99.10
2018-10-05T12:58:12.910Z,99.90
2018-10-05T13:00:41.026Z,99.70
2018-10-05T13:03:09.219Z,98.20
2018-10-05T13:05:37.384Z,97.30
2018-10-05T13:08:05.667Z,97.20
2018-10-05T13:10:33.867Z,96.90
2018-10-05T13:13:02.095Z,97.50
2018-10-05T13:15:30.424Z,96.00
2018-10-05T13:17:58.845Z,95.30
2018-10-05T13:20:27.061Z,94.80
2018-10-05T13:22:55.229Z,95.40
2018-10-05T13:25:23.415Z,95.30
2018-10-05T13:27:51.630Z,94.90
2018-10-05T13:30:19.790Z,94.50
2018-10-05T13:32:47.948Z,94.60
2018-10-05T13:35:16.143Z,94.60
2018-10-05T13:37:44.338Z,95.50
2018-10-05T13:40:12.462Z,96.20
2018-10-05T13:42:40.665Z,96.20
2018-10-05T13:45:08.861Z,96.30
2018-10-05T13:47:37.008Z,95.30
2018-10-05T13:50:05.483Z,95.70
2018-10-05T13:52:33.614Z,96.40
2018-10-05T13:55:01.795Z,95.60
2018-10-05T13:57:29.929Z,96.00
2018-10-05T13:59:58.134Z,96.40
2018-10-05T14:02:26.310Z,95.00
2018-10-05T14:04:54.507Z,95.00
2018-10-05T14:07:22.731Z,96.10
2018-10-05T14:09:51.752Z,95.00
2018-10-05T14:12:20.017Z,95.00
2018-10-05T14:14:48.286Z,94.70
2018-10-05T14:17:16.478Z,95.40
2018-10-05T14:19:44.751Z,95.10
2018-10-05T14:22:12.966Z,95.60
2018-10-05T14:24:41.109Z,96.00
2018-10-05T14:27:09.311Z,96.20
2018-10-05T14:29:37.505Z,96.70
2018-10-05T14:32:05.763Z,97.00
2018-10-05T14:34:33.898Z,96.10
2018-10-05T14:37:02.039Z,95.60
2018-10-05T14:39:30.231Z,95.90
2018-10-05T14:41:58.384Z,96.40
2018-10-05T14:44:26.549Z,95.90
2018-10-05T14:46:54.734Z,96.00
2018-10-05T14:49:22.903Z,96.20
2018-10-05T14:51:51.154Z,96.40
2018-10-05T14:54:19.344Z,95.90
2018-10-05T14:56:47.503Z,96.10
2018-10-05T14:59:15.687Z,96.50
2018-10-05T15:01:43.935Z,96.90
2018-10-05T15:04:12.133Z,96.80
2018-10-05T15:06:40.273Z,96.70
2018-10-05T15:09:08.426Z,96.50
2018-10-05T15:11:36.570Z,96.20
2018-10-05T15:14:04.754Z,97.00
2018-10-05T15:16:32.914Z,97.30
2018-10-05T15:19:01.039Z,97.70
2018-10-05T15:21:29.225Z,97.40
2018-10-05T15:23:57.449Z,97.40
2018-10-05T15:26:25.582Z,97.90
2018-10-05T15:28:53.738Z,97.40
2018-10-05T15:31:21.891Z,97.20
2018-10-05T15:33:50.143Z,97.30
2018-10-05T15:36:18.293Z,97.80
2018-10-05T15:38:46.492Z,97.80
2018-10-05T15:41:14.662Z,98.00
2018-10-05T15:43:42.797Z,98.70
2018-10-05T15:46:11.764Z,98.70
2018-10-05T15:48:39.937Z,98.90
2018-10-05T15:51:08.087Z,98.70
2018-10-05T15:53:36.430Z,99.00
2018-10-05T15:56:04.605Z,99.20
2018-10-05T15:58:32.788Z,99.10
2018-10-05T16:01:01.010Z,98.90
2018-10-05T16:03:29.237Z,98.80
2018-10-05T16:05:57.416Z,98.90
2018-10-05T16:08:25.551Z,98.90
2018-10-05T16:10:53.683Z,99.20
2018-10-05T16:13:21.818Z,99.10
2018-10-05T16:15:49.963Z,99.20
2018-10-05T16:18:18.230Z,99.30
2018-10-05T16:20:46.346Z,99.30
2018-10-05T16:23:14.507Z,99.10
2018-10-05T16:25:42.670Z,99.60
2018-10-05T16:28:10.866Z,99.10
2018-10-05T16:30:39.054Z,99.10
2018-10-05T16:33:07.239Z,99.00
2018-10-05T16:35:35.390Z,99.00
2018-10-05T16:38:03.530Z,99.20
2018-10-05T16:40:31.679Z,99.10
2018-10-05T16:42:59.856Z,99.00
2018-10-05T16:45:28.112Z,99.10
2018-10-05T16:47:58.137Z,99.00
2018-10-05T16:50:26.307Z,99.20
2018-10-05T16:52:54.471Z,99.10
2018-10-05T16:55:22.923Z,99.10
2018-10-05T16:57:51.068Z,99.20
2018-10-05T17:00:19.202Z,99.30
2018-10-05T17:02:47.387Z,99.30
2018-10-05T17:05:15.597Z,99.50
2018-10-05T17:07:43.786Z,99.40
2018-10-05T17:10:11.906Z,99.60
2018-10-05T17:12:40.047Z,99.70
2018-10-05T17:15:08.228Z,99.80
2018-10-05T17:17:36.398Z,99.80
2018-10-05T17:20:04.565Z,99.90
2018-10-05T17:22:32.715Z,99.80
2018-10-05T17:25:00.975Z,99.80
2018-10-05T17:27:29.173Z,99.80
2018-10-05T17:29:57.307Z,99.90
2018-10-05T17:32:25.486Z,99.90
2018-10-05T17:34:53.675Z,99.90
2018-10-05T17:37:21.767Z,99.80
2018-10-05T17:39:49.946Z,99.90
2018-10-05T17:42:18.096Z,99.90
2018-10-05T17:44:46.260Z,99.90
2018-10-05T17:47:14.423Z,99.90
2018-10-05T17:49:42.578Z,99.90
2018-10-05T17:52:10.759Z,99.90
2018-10-05T17:54:38.887Z,99.90
2018-10-05T17:57:07.042Z,99.90
2018-10-05T17:59:35.201Z,99.90
2018-10-05T18:02:03.379Z,99.90
2018-10-05T18:04:31.531Z,99.90
2018-10-05T18:06:59.770Z,99.90
2018-10-05T18:09:28.044Z,99.90
2018-10-05T18:11:56.212Z,99.90
2018-10-05T18:14:24.369Z,99.90
2018-10-05T18:16:52.491Z,99.90
2018-10-05T18:19:20.672Z,99.90
2018-10-05T18:21:48.848Z,99.90
2018-10-05T18:24:17.023Z,99.90
2018-10-05T18:26:45.187Z,99.90
2018-10-05T18:29:13.327Z,99.90
2018-10-05T18:31:41.464Z,99.90
2018-10-05T18:34:09.650Z,99.90
2018-10-05T18:36:37.776Z,99.90
2018-10-05T18:39:07.870Z,99.90
2018-10-05T18:41:36.075Z,99.90
2018-10-05T18:44:04.264Z,99.90
2018-10-05T18:46:32.387Z,99.90
2018-10-05T18:49:00.558Z,99.90
2018-10-05T18:51:28.674Z,99.90
2018-10-05T18:53:56.810Z,99.90
2018-10-05T18:57:38.966Z,99.90
2018-10-05T19:00:07.181Z,99.90
2018-10-05T19:02:35.331Z,99.90
2018-10-05T19:05:03.487Z,99.90
2018-10-05T19:07:31.632Z,99.90
2018-10-05T19:09:59.766Z,99.90
2018-10-05T19:12:27.930Z,99.90
2018-10-05T19:14:56.078Z,99.90
2018-10-05T19:17:24.215Z,99.90
2018-10-05T19:19:52.366Z,99.90
2018-10-05T19:22:20.519Z,99.90
2018-10-05T19:24:48.687Z,99.90
2018-10-05T19:27:16.874Z,99.90
2018-10-05T19:29:45.066Z,99.90
2018-10-05T19:32:13.207Z,99.90
2018-10-05T19:34:41.364Z,99.90
2018-10-05T19:37:09.519Z,99.90
2018-10-05T19:39:37.687Z,99.90
2018-10-05T19:42:05.855Z,99.90
2018-10-05T19:44:34.018Z,99.90
2018-10-05T19:47:02.167Z,99.90
2018-10-05T19:49:30.310Z,99.90
2018-10-05T19:51:58.450Z,99.90
2018-10-05T19:54:26.657Z,99.90
2018-10-05T19:56:54.807Z,99.90
2018-10-05T19:59:22.964Z,99.90
2018-10-05T20:01:51.193Z,99.90
2018-10-05T20:04:19.322Z,99.90
2018-10-05T20:06:47.472Z,99.90
2018-10-05T20:09:15.666Z,99.90
2018-10-05T20:11:43.799Z,99.90
2018-10-05T20:14:11.946Z,99.90
2018-10-05T20:16:40.083Z,99.90
2018-10-05T20:19:08.245Z,99.90
2018-10-05T20:21:36.371Z,99.90
2018-10-05T20:24:04.515Z,99.90
2018-10-05T20:26:32.643Z,99.90
2018-10-05T20:29:00.810Z,99.90
2018-10-05T20:31:28.958Z,99.90
2018-10-05T20:33:57.102Z,99.90
2018-10-05T20:36:25.366Z,99.90
2018-10-05T20:38:53.499Z,99.90
2018-10-05T20:41:21.872Z,99.90
2018-10-05T20:43:50.012Z,99.90
2018-10-05T20:46:18.150Z,99.90
2018-10-05T20:48:46.283Z,99.90
2018-10-05T20:51:14.423Z,99.90
2018-10-05T20:53:42.546Z,99.90
2018-10-05T20:56:10.702Z,99.90
2018-10-05T20:58:38.835Z,99.90
2018-10-05T21:01:06.986Z,99.90
2018-10-05T21:03:35.131Z,99.90
2018-10-05T21:06:03.290Z,99.90
2018-10-05T21:08:31.489Z,99.90
2018-10-05T21:10:59.631Z,99.90
2018-10-05T21:13:27.761Z,99.90
2018-10-05T21:15:55.914Z,99.90
2018-10-05T21:18:24.074Z,99.90
2018-10-05T21:20:52.205Z,99.90
2018-10-05T21:23:20.331Z,99.90
2018-10-05T21:25:48.484Z,99.90
2018-10-05T21:28:16.646Z,99.90
2018-10-05T21:30:44.835Z,99.90
2018-10-05T21:33:13.056Z,99.90
2018-10-05T21:35:41.252Z,99.90
2018-10-05T21:38:09.356Z,99.90
2018-10-05T21:40:37.515Z,99.90
2018-10-05T21:43:05.715Z,99.90
2018-10-05T21:45:33.851Z,99.90
2018-10-05T21:48:01.984Z,99.90
2018-10-05T21:50:30.116Z,99.90
2018-10-05T21:52:58.286Z,99.90
2018-10-05T21:55:26.463Z,99.90
2018-10-05T21:57:54.598Z,99.90
2018-10-05T22:00:22.812Z,99.90
2018-10-05T22:02:50.959Z,99.90
2018-10-05T22:05:19.091Z,99.90
2018-10-05T22:07:47.341Z,99.90
2018-10-05T22:10:15.497Z,99.90
2018-10-05T22:12:43.635Z,99.90
2018-10-05T22:15:11.770Z,99.90
2018-10-05T22:17:39.930Z,99.90
2018-10-05T22:20:08.088Z,99.90
2018-10-05T22:22:36.262Z,99.90
2018-10-05T22:25:04.448Z,99.90
2018-10-05T22:27:32.604Z,99.90
2018-10-05T22:30:00.735Z,99.90
2018-10-05T22:32:28.882Z,99.90
2018-10-05T22:34:57.015Z,99.90
2018-10-05T22:37:25.170Z,99.90
2018-10-05T22:39:53.323Z,99.90
2018-10-05T22:42:21.462Z,99.90
2018-10-05T22:44:49.898Z,99.90
2018-10-05T22:47:18.023Z,99.90
2018-10-05T22:49:46.180Z,99.90
2018-10-05T22:52:14.349Z,99.90
2018-10-05T22:54:42.526Z,99.90
2018-10-05T22:57:10.659Z,99.90
2018-10-05T22:59:38.835Z,99.90
2018-10-05T23:02:07.043Z,99.90
2018-10-05T23:04:35.255Z,99.90
2018-10-05T23:07:03.451Z,99.90
2018-10-05T23:09:31.607Z,99.90
2018-10-05T23:11:59.781Z,99.90
2018-10-05T23:14:27.902Z,99.90
2018-10-05T23:16:56.093Z,99.90
2018-10-05T23:19:24.271Z,99.90
2018-10-05T23:21:52.410Z,99.90
2018-10-05T23:24:20.605Z,99.90
2018-10-05T23:26:48.791Z,99.90
2018-10-05T23:29:16.926Z,99.90
2018-10-05T23:31:45.071Z,99.90
2018-10-05T23:34:13.291Z,99.90
2018-10-05T23:36:41.436Z,99.90
2018-10-05T23:39:10.937Z,99.90
2018-10-05T23:41:39.134Z,99.90
2018-10-05T23:44:07.407Z,99.90
2018-10-05T23:46:35.686Z,99.90
2018-10-05T23:49:03.826Z,99.90
2018-10-05T23:51:31.958Z,99.90
2018-10-05T23:54:00.327Z,99.90
2018-10-05T23:56:28.494Z,99.90
2018-10-05T23:58:56.980Z,99.90
